Time;durP1;ratioP1;P1;durP2;ratioP2;P2;SDS_P1;SDS_P2;PMS_P1;PMS_P2;Temp;Humidity;BMP_temperature;BMP_pressure;BME280_temperature;BME280_humidity;BME280_pressure;Samples;Min_cycle;Max_cycle;Signal;HPM_P1;HPM_P2
2022/12/06 00:01:59;;;;;;;7.73;6.33;;;2.90;99.90;;;;;;5070181;28;20473;-49
2022/12/06 00:04:26;;;;;;;8.00;7.20;;;2.80;99.90;;;;;;5069952;28;20461;-49
2022/12/06 00:06:53;;;;;;;7.50;6.03;;;2.80;99.90;;;;;;5070451;28;20473;-49
2022/12/06 00:09:22;;;;;;;5.93;5.30;;;2.90;99.90;;;;;;5071767;28;20449;-51
2022/12/06 00:11:51;;;;;;;5.83;5.23;;;2.90;99.90;;;;;;5071173;28;20516;-49
2022/12/06 00:14:19;;;;;;;7.00;6.30;;;3.00;99.90;;;;;;5070548;28;20496;-48
2022/12/06 00:16:46;;;;;;;8.87;6.80;;;3.00;99.90;;;;;;5070944;28;20445;-49
2022/12/06 00:19:15;;;;;;;8.30;7.50;;;3.00;99.90;;;;;;5071804;28;20497;-49
2022/12/06 00:21:42;;;;;;;7.43;6.70;;;2.90;99.90;;;;;;5071406;28;20467;-49
2022/12/06 00:24:12;;;;;;;7.03;5.60;;;2.90;99.90;;;;;;5070704;28;20497;-49
2022/12/06 00:26:40;;;;;;;6.50;6.00;;;2.80;99.90;;;;;;5067455;28;20894;-48
2022/12/06 00:29:12;;;;;;;7.97;6.40;;;2.70;99.90;;;;;;5060706;28;20469;-49
2022/12/06 00:31:39;;;;;;;6.87;5.80;;;2.80;99.90;;;;;;5071504;28;21070;-49
2022/12/06 00:34:06;;;;;;;5.10;4.60;;;2.80;99.90;;;;;;5070897;28;20512;-50
2022/12/06 00:36:35;;;;;;;7.90;5.60;;;2.70;99.90;;;;;;5070573;28;20487;-50
2022/12/06 00:39:05;;;;;;;7.30;6.60;;;2.70;99.90;;;;;;5071265;28;20474;-48
2022/12/06 00:41:32;;;;;;;7.77;5.90;;;2.40;99.90;;;;;;5071461;28;20877;-48
2022/12/06 00:43:59;;;;;;;8.70;7.90;;;2.50;99.90;;;;;;5070360;28;20512;-49
2022/12/06 00:46:29;;;;;;;11.80;9.17;;;2.70;99.90;;;;;;5070870;28;20480;-49
2022/12/06 00:48:57;;;;;;;9.50;8.23;;;2.80;99.90;;;;;;5070973;28;20469;-48
2022/12/06 00:51:26;;;;;;;10.07;7.33;;;2.80;99.90;;;;;;5069684;28;21005;-48
2022/12/06 00:53:54;;;;;;;5.33;4.80;;;2.70;99.90;;;;;;5070677;28;20501;-50
2022/12/06 00:56:21;;;;;;;5.00;4.33;;;2.60;99.90;;;;;;5070639;28;20437;-48
2022/12/06 00:58:48;;;;;;;5.97;4.97;;;2.60;99.90;;;;;;5071408;28;20480;-49
2022/12/06 01:01:17;;;;;;;8.17;6.43;;;2.50;99.90;;;;;;5070741;28;20468;-48
2022/12/06 01:03:46;;;;;;;6.90;5.90;;;2.60;99.90;;;;;;5070510;28;20488;-49
2022/12/06 01:06:15;;;;;;;5.67;4.57;;;2.40;99.90;;;;;;5059469;28;20946;-49
2022/12/06 01:08:43;;;;;;;5.67;4.90;;;2.20;99.90;;;;;;5069765;28;20439;-48
2022/12/06 01:11:12;;;;;;;4.20;3.80;;;2.30;99.90;;;;;;5070704;28;20887;-48
2022/12/06 01:13:39;;;;;;;3.93;3.53;;;2.40;99.90;;;;;;5070064;28;21060;-48
2022/12/06 01:16:08;;;;;;;4.13;3.73;;;2.40;99.90;;;;;;5069959;28;20933;-49
2022/12/06 01:18:35;;;;;;;5.30;4.73;;;2.40;99.90;;;;;;5070500;28;20437;-48
2022/12/06 01:21:08;;;;;;;6.07;4.90;;;2.20;99.90;;;;;;5071294;28;20569;-48
2022/12/06 01:23:35;;;;;;;7.00;5.80;;;2.20;99.90;;;;;;5070508;28;20475;-50
2022/12/06 01:26:02;;;;;;;6.93;6.30;;;2.10;99.90;;;;;;5070386;28;20972;-49
2022/12/06 01:28:29;;;;;;;7.40;6.60;;;2.10;99.90;;;;;;5070477;28;20443;-49
2022/12/06 01:30:56;;;;;;;6.93;5.90;;;2.10;99.90;;;;;;5070337;28;20544;-49
2022/12/06 01:33:23;;;;;;;7.03;5.20;;;2.30;99.90;;;;;;5070872;28;20523;-49
2022/12/06 01:35:50;;;;;;;5.57;4.33;;;2.40;99.90;;;;;;5070167;28;20437;-49
2022/12/06 01:38:18;;;;;;;6.60;5.53;;;2.50;99.90;;;;;;5070611;28;20812;-48
2022/12/06 01:40:47;;;;;;;5.50;4.77;;;2.60;99.90;;;;;;5070367;28;20441;-48
2022/12/06 01:43:31;;;;;;;5.23;4.73;;;2.60;99.90;;;;;;5069539;28;20973;-49
2022/12/06 01:46:02;;;;;;;6.17;4.87;;;2.70;99.90;;;;;;5070381;28;20445;-49
2022/12/06 01:48:29;;;;;;;13.03;7.37;;;2.70;99.90;;;;;;5060597;28;20459;-49
2022/12/06 01:50:57;;;;;;;12.33;9.07;;;2.60;99.90;;;;;;5070058;28;20437;-49
2022/12/06 01:53:26;;;;;;;9.80;7.77;;;2.30;99.90;;;;;;5069916;28;20854;-48
2022/12/06 01:55:54;;;;;;;8.57;6.90;;;2.30;99.90;;;;;;5068367;28;20567;-50
2022/12/06 01:58:26;;;;;;;5.83;5.27;;;2.30;99.90;;;;;;5068223;28;20443;-51
2022/12/06 02:00:53;;;;;;;4.67;3.90;;;2.50;99.90;;;;;;5069992;28;20532;-49
2022/12/06 02:03:24;;;;;;;5.63;4.30;;;2.60;99.90;;;;;;5069842;28;20467;-49
2022/12/06 02:05:51;;;;;;;7.27;6.57;;;2.50;99.90;;;;;;5069845;28;20792;-49
2022/12/06 02:08:19;;;;;;;10.60;8.20;;;2.40;99.90;;;;;;5066631;28;20447;-49
2022/12/06 02:10:48;;;;;;;9.80;8.10;;;2.40;99.90;;;;;;5068766;28;20536;-49
2022/12/06 02:13:15;;;;;;;8.57;6.20;;;2.50;99.90;;;;;;5073410;28;20494;-48
2022/12/06 02:15:53;;;;;;;6.43;5.10;;;2.20;99.90;;;;;;5074020;28;20994;-48
2022/12/06 02:18:28;;;;;;;6.60;5.70;;;2.40;99.90;;;;;;5073274;28;20977;-50
2022/12/06 02:21:06;;;;;;;11.60;8.10;;;2.30;99.90;;;;;;5069687;28;20523;-49
2022/12/06 02:24:01;;;;;;;12.23;9.50;;;2.30;99.90;;;;;;5071276;28;20543;-48
2022/12/06 02:26:36;;;;;;;12.90;9.80;;;2.20;99.90;;;;;;5073428;28;20449;-48
2022/12/06 02:29:37;;;;;;;13.10;9.60;;;1.70;99.90;;;;;;5073060;28;20531;-49
2022/12/06 02:32:10;;;;;;;10.60;7.60;;;1.70;99.90;;;;;;5063618;28;20478;-49
2022/12/06 02:34:44;;;;;;;8.63;6.23;;;1.70;99.90;;;;;;5073923;28;20467;-50
2022/12/06 02:37:14;;;;;;;13.50;8.67;;;1.90;99.90;;;;;;5073068;28;20444;-50
2022/12/06 02:39:47;;;;;;;13.30;9.47;;;2.10;99.90;;;;;;5073138;28;20520;-48
2022/12/06 02:42:20;;;;;;;7.00;5.30;;;2.30;99.90;;;;;;5072718;28;20437;-50
2022/12/06 02:44:53;;;;;;;4.57;3.70;;;2.30;99.90;;;;;;5073479;28;20571;-49
2022/12/06 02:47:25;;;;;;;3.80;3.17;;;2.20;99.90;;;;;;5071252;28;20476;-48
2022/12/06 02:49:53;;;;;;;5.70;3.77;;;2.10;99.90;;;;;;5071452;28;20445;-49
2022/12/06 02:52:24;;;;;;;4.03;2.90;;;2.20;99.90;;;;;;5072465;28;20473;-50
2022/12/06 02:54:52;;;;;;;3.30;2.90;;;2.10;99.90;;;;;;5054102;28;20446;-49
2022/12/06 02:57:23;;;;;;;3.90;2.77;;;2.10;99.90;;;;;;5073425;28;20667;-48
2022/12/06 02:59:54;;;;;;;3.63;2.53;;;2.20;99.90;;;;;;5072359;28;20485;-48
2022/12/06 03:02:23;;;;;;;3.70;2.87;;;2.20;99.90;;;;;;5073002;28;20536;-48
2022/12/06 03:05:05;;;;;;;4.60;4.00;;;2.20;99.90;;;;;;5072151;28;20527;-51
2022/12/06 03:07:42;;;;;;;5.37;3.80;;;2.20;99.90;;;;;;5066341;28;20524;-48
2022/12/06 03:10:25;;;;;;;3.20;2.90;;;2.10;99.90;;;;;;5072556;28;20532;-49
2022/12/06 03:13:00;;;;;;;4.13;3.70;;;2.10;99.90;;;;;;5070130;28;20486;-47
2022/12/06 03:15:36;;;;;;;7.30;4.80;;;2.10;99.90;;;;;;5065142;28;20556;-49
2022/12/06 03:18:11;;;;;;;18.97;7.33;;;2.10;99.90;;;;;;5072146;28;20527;-48
2022/12/06 03:20:43;;;;;;;14.00;7.93;;;1.80;99.90;;;;;;5071858;28;20527;-50
2022/12/06 03:23:15;;;;;;;9.40;6.70;;;1.60;99.90;;;;;;5061703;28;20575;-49
2022/12/06 03:25:43;;;;;;;9.30;7.00;;;1.70;99.90;;;;;;5072669;28;20447;-49
2022/12/06 03:28:11;;;;;;;5.43;4.60;;;1.60;99.90;;;;;;5072498;28;20543;-49
2022/12/06 03:30:40;;;;;;;3.80;3.13;;;1.60;99.90;;;;;;5071840;28;20441;-48
2022/12/06 03:33:10;;;;;;;7.03;5.17;;;1.70;99.90;;;;;;5070853;28;20484;-51
2022/12/06 03:35:37;;;;;;;6.27;4.50;;;1.80;99.90;;;;;;5072290;28;20437;-49
2022/12/06 03:38:08;;;;;;;7.13;5.03;;;1.80;99.90;;;;;;5071726;28;20532;-48
2022/12/06 03:40:38;;;;;;;4.67;3.90;;;1.80;99.90;;;;;;5071953;28;20949;-49
2022/12/06 03:43:06;;;;;;;3.70;3.17;;;1.70;99.90;;;;;;5071955;28;20461;-48
2022/12/06 03:45:39;;;;;;;6.27;3.90;;;1.70;99.90;;;;;;5071761;28;21033;-49
2022/12/06 03:48:11;;;;;;;4.33;3.53;;;1.60;99.90;;;;;;5068013;28;20532;-48
2022/12/06 03:50:41;;;;;;;5.10;4.60;;;1.60;99.90;;;;;;5068873;28;20467;-49
2022/12/06 03:53:08;;;;;;;4.67;3.67;;;1.70;99.90;;;;;;5071567;28;20555;-50
2022/12/06 03:55:35;;;;;;;5.90;3.67;;;1.60;99.90;;;;;;5072025;28;20532;-48
2022/12/06 03:58:02;;;;;;;4.20;3.50;;;1.70;99.90;;;;;;5072199;28;20945;-48
2022/12/06 04:00:29;;;;;;;5.97;4.00;;;1.70;99.90;;;;;;5060161;28;20529;-49
2022/12/06 04:02:55;;;;;;;7.03;3.80;;;1.60;99.90;;;;;;5068146;28;20923;-50
2022/12/06 04:05:24;;;;;;;7.17;4.50;;;1.60;99.90;;;;;;5071972;28;20437;-48
2022/12/06 04:07:50;;;;;;;6.43;4.17;;;1.50;99.90;;;;;;5071592;28;20770;-48
2022/12/06 04:10:17;;;;;;;4.33;2.93;;;1.30;99.90;;;;;;5070885;28;21033;-48
2022/12/06 04:13:04;;;;;;;3.80;2.37;;;1.30;99.90;;;;;;5063861;28;20479;-50
2022/12/06 04:15:33;;;;;;;2.60;1.73;;;1.30;99.90;;;;;;5060260;28;20456;-50
2022/12/06 04:18:15;;;;;;;1.80;1.20;;;1.40;99.90;;;;;;5070252;28;20547;-48
2022/12/06 04:23:35;;;;;;;3.60;2.63;;;1.50;99.90;;;;;;5062315;28;20951;-48
2022/12/06 04:26:03;;;;;;;2.60;2.17;;;0.70;99.90;;;;;;5070339;28;20445;-49
2022/12/06 04:39:29;;;;;;;2.80;2.00;;;1.30;99.90;;;;;;5070940;28;20440;-48
2022/12/06 04:44:41;;;;;;;3.00;2.70;;;1.20;99.90;;;;;;5070589;28;20440;-48
2022/12/06 04:47:08;;;;;;;2.80;2.10;;;1.30;99.90;;;;;;5070433;28;20445;-48
2022/12/06 04:49:36;;;;;;;2.67;2.20;;;1.50;99.90;;;;;;5070684;28;20824;-48
2022/12/06 04:52:04;;;;;;;2.73;2.53;;;1.40;99.90;;;;;;5070899;28;20535;-48
2022/12/06 04:54:31;;;;;;;2.57;2.37;;;1.30;99.90;;;;;;5063507;28;20460;-48
2022/12/06 04:56:59;;;;;;;5.43;3.33;;;1.30;99.90;;;;;;5069211;28;20960;-48
2022/12/06 04:59:27;;;;;;;3.37;3.07;;;1.30;99.90;;;;;;5069855;28;20982;-48
2022/12/06 05:01:54;;;;;;;2.10;1.90;;;1.30;99.90;;;;;;5065694;28;20467;-48
2022/12/06 05:04:21;;;;;;;3.83;3.13;;;1.40;99.90;;;;;;5071362;28;20548;-48
2022/12/06 05:06:48;;;;;;;2.10;1.80;;;1.30;99.90;;;;;;5070600;28;20532;-48
2022/12/06 05:09:17;;;;;;;3.30;2.70;;;1.20;99.90;;;;;;5065694;28;21027;-48
2022/12/06 05:11:43;;;;;;;3.53;2.80;;;1.20;99.90;;;;;;5071185;28;20520;-49
2022/12/06 05:14:10;;;;;;;1.50;1.20;;;1.00;99.90;;;;;;5069729;28;20487;-48
2022/12/06 05:16:37;;;;;;;1.87;1.00;;;0.80;99.90;;;;;;5070803;28;20471;-49
2022/12/06 05:19:04;;;;;;;1.40;1.30;;;0.80;99.90;;;;;;5070842;28;20535;-48
2022/12/06 05:21:31;;;;;;;2.03;1.60;;;1.00;99.90;;;;;;5066397;28;20451;-48
2022/12/06 05:23:58;;;;;;;3.63;2.00;;;1.20;99.90;;;;;;5070086;28;21001;-48
2022/12/06 05:26:28;;;;;;;2.50;2.23;;;1.20;99.90;;;;;;5070124;28;20444;-48
2022/12/06 05:28:58;;;;;;;3.50;3.20;;;1.20;99.90;;;;;;5071391;28;20445;-48
2022/12/06 05:31:25;;;;;;;4.77;3.53;;;1.10;99.90;;;;;;5070319;28;20551;-48
2022/12/06 05:33:53;;;;;;;2.60;2.07;;;0.90;99.90;;;;;;5069616;28;21081;-50
2022/12/06 05:36:22;;;;;;;2.27;1.60;;;0.80;99.90;;;;;;5070159;28;20477;-48
2022/12/06 05:38:49;;;;;;;3.50;2.23;;;0.80;99.90;;;;;;5070879;28;21042;-50
2022/12/06 05:41:17;;;;;;;35.17;31.63;;;1.20;99.90;;;;;;5070601;28;20532;-48
2022/12/06 05:43:45;;;;;;;17.97;16.17;;;1.30;99.90;;;;;;5070277;28;20591;-48
2022/12/06 05:46:12;;;;;;;8.10;6.53;;;1.30;99.90;;;;;;5074011;28;20535;-49
2022/12/06 05:48:38;;;;;;;5.40;4.13;;;1.20;99.90;;;;;;5075342;28;20535;-47
2022/12/06 05:51:06;;;;;;;3.40;2.93;;;1.20;99.90;;;;;;5074280;28;20540;-50
2022/12/06 05:53:33;;;;;;;2.30;2.00;;;1.10;99.90;;;;;;5074143;28;20477;-48
2022/12/06 05:56:05;;;;;;;4.83;4.33;;;0.90;99.90;;;;;;5072359;28;20999;-50
2022/12/06 05:58:32;;;;;;;3.23;3.00;;;0.80;99.90;;;;;;5073549;28;20441;-48
2022/12/06 06:01:01;;;;;;;2.50;2.17;;;1.00;99.90;;;;;;5073199;28;20892;-48
2022/12/06 06:03:28;;;;;;;2.97;2.70;;;0.70;99.90;;;;;;5071673;28;20463;-48
2022/12/06 06:05:58;;;;;;;3.20;2.73;;;0.60;99.90;;;;;;5067804;28;20465;-49
2022/12/06 06:08:25;;;;;;;2.83;2.40;;;0.70;99.90;;;;;;5066298;28;20531;-51
2022/12/06 06:10:52;;;;;;;2.43;2.23;;;0.70;99.90;;;;;;5073218;28;20441;-52
2022/12/06 06:13:19;;;;;;;1.60;1.00;;;0.60;99.90;;;;;;5073265;28;20481;-48
2022/12/06 06:15:47;;;;;;;1.10;0.93;;;0.90;99.90;;;;;;5073200;28;20447;-49
2022/12/06 06:18:15;;;;;;;2.37;1.20;;;0.90;99.90;;;;;;5073884;28;20502;-49
2022/12/06 06:20:43;;;;;;;3.97;2.90;;;0.90;99.90;;;;;;5068276;28;20826;-50
2022/12/06 06:23:10;;;;;;;2.77;2.20;;;0.90;99.90;;;;;;5072708;28;20464;-48
2022/12/06 06:25:39;;;;;;;2.47;2.00;;;0.90;99.90;;;;;;5073553;28;20531;-48
2022/12/06 06:28:06;;;;;;;2.60;2.03;;;0.80;99.90;;;;;;5073955;28;20531;-49
2022/12/06 06:30:33;;;;;;;3.17;2.87;;;0.70;99.90;;;;;;5074055;28;20441;-49
2022/12/06 06:33:00;;;;;;;2.60;2.40;;;0.90;99.90;;;;;;5073415;28;20575;-50
2022/12/06 06:35:28;;;;;;;2.20;2.00;;;0.90;99.90;;;;;;5074051;28;20445;-48
2022/12/06 06:37:55;;;;;;;1.80;1.70;;;0.70;99.90;;;;;;5074103;28;20957;-50
2022/12/06 06:40:22;;;;;;;3.67;2.00;;;0.90;99.90;;;;;;5074708;28;20441;-48
2022/12/06 06:42:48;;;;;;;2.97;1.97;;;1.10;99.90;;;;;;5074160;28;20499;-49
2022/12/06 06:45:15;;;;;;;1.83;1.60;;;1.00;99.90;;;;;;5073851;28;20481;-48
2022/12/06 06:47:42;;;;;;;2.03;1.83;;;1.00;99.90;;;;;;5073734;28;20937;-48
2022/12/06 06:50:09;;;;;;;3.40;2.70;;;0.90;99.90;;;;;;5074049;28;20507;-51
2022/12/06 06:52:38;;;;;;;2.77;2.47;;;0.80;99.90;;;;;;5073958;28;20576;-49
2022/12/06 06:55:05;;;;;;;2.40;1.50;;;0.80;99.90;;;;;;5074047;28;20451;-49
2022/12/06 06:57:34;;;;;;;1.87;1.73;;;0.70;99.90;;;;;;5073863;28;20531;-48
2022/12/06 07:00:00;;;;;;;1.60;1.43;;;0.60;99.90;;;;;;5074236;28;20456;-48
2022/12/06 07:02:27;;;;;;;2.23;1.90;;;0.80;99.90;;;;;;5074088;28;20449;-49
2022/12/06 07:04:54;;;;;;;2.00;1.57;;;0.90;99.90;;;;;;5073513;28;20437;-49
2022/12/06 07:07:21;;;;;;;2.73;2.53;;;0.90;99.90;;;;;;5073710;28;20476;-48
2022/12/06 07:09:49;;;;;;;9.33;3.73;;;0.80;99.90;;;;;;5073555;28;20441;-49
2022/12/06 07:12:16;;;;;;;10.63;8.53;;;0.70;99.90;;;;;;5073785;28;20447;-49
2022/12/06 07:14:43;;;;;;;39.03;30.27;;;0.60;99.90;;;;;;5072412;28;20568;-50
2022/12/06 07:17:10;;;;;;;15.57;12.77;;;0.70;99.90;;;;;;5072912;28;20445;-49
2022/12/06 07:19:36;;;;;;;7.00;6.30;;;0.90;99.90;;;;;;5073756;28;20528;-50
2022/12/06 07:22:03;;;;;;;3.70;2.70;;;0.90;99.90;;;;;;5073262;28;20444;-50
2022/12/06 07:24:30;;;;;;;4.60;4.03;;;0.80;99.90;;;;;;5072779;28;20457;-49
2022/12/06 07:26:59;;;;;;;3.63;2.73;;;0.70;99.90;;;;;;5072870;28;20441;-52
2022/12/06 07:29:26;;;;;;;1.50;1.30;;;0.40;99.90;;;;;;5072939;28;20451;-49
2022/12/06 07:31:52;;;;;;;5.33;4.80;;;0.40;99.90;;;;;;5072782;28;20437;-49
2022/12/06 07:34:19;;;;;;;34.70;18.40;;;0.70;99.90;;;;;;5072341;28;20875;-49
2022/12/06 07:36:46;;;;;;;14.37;8.80;;;0.70;99.90;;;;;;5072707;28;20447;-51
2022/12/06 07:39:13;;;;;;;15.83;8.77;;;0.80;99.90;;;;;;5072811;28;20820;-49
2022/12/06 07:47:12;;;;;;;30.80;19.43;;;0.80;99.90;;;;;;5054722;28;20425;-50
2022/12/06 07:49:39;;;;;;;12.60;6.57;;;0.80;99.90;;;;;;5072747;28;20524;-50
2022/12/06 07:52:06;;;;;;;10.67;5.63;;;0.80;99.90;;;;;;5072815;28;20447;-49
2022/12/06 07:54:33;;;;;;;19.00;10.60;;;0.80;99.90;;;;;;5071807;28;21088;-52
2022/12/06 07:56:59;;;;;;;8.57;5.43;;;0.60;99.90;;;;;;5072570;28;20437;-49
2022/12/06 07:59:28;;;;;;;210.63;92.33;;;0.50;99.90;;;;;;5072474;28;20989;-49
2022/12/06 08:01:55;;;;;;;45.67;24.57;;;0.80;99.90;;;;;;5072388;28;20470;-47
2022/12/06 08:04:22;;;;;;;27.60;18.33;;;0.90;99.90;;;;;;5071892;28;20544;-50
2022/12/06 08:06:49;;;;;;;9.70;5.93;;;0.90;99.90;;;;;;5071904;28;20441;-49
2022/12/06 08:09:16;;;;;;;1.87;1.63;;;0.90;99.90;;;;;;5073661;28;20952;-51
2022/12/06 08:11:43;;;;;;;5.07;4.43;;;0.80;99.90;;;;;;5072161;28;20444;-49
2022/12/06 08:14:10;;;;;;;3.17;2.90;;;0.80;99.90;;;;;;5071073;28;20486;-49
2022/12/06 08:16:39;;;;;;;5.30;4.40;;;0.70;99.90;;;;;;5071869;28;20535;-49
2022/12/06 08:19:06;;;;;;;9.00;5.30;;;0.00;99.90;;;;;;5071579;28;20524;-50
2022/12/06 08:21:33;;;;;;;6.83;4.43;;;-0.30;99.90;;;;;;5072389;28;20528;-50
2022/12/06 08:24:02;;;;;;;5.23;4.67;;;0.00;99.90;;;;;;5071608;28;20494;-49
2022/12/06 08:26:29;;;;;;;5.77;4.83;;;0.40;99.90;;;;;;5071176;28;20448;-50
2022/12/06 08:28:56;;;;;;;6.00;3.77;;;0.70;99.90;;;;;;5068273;28;20788;-49
2022/12/06 08:31:24;;;;;;;9.60;5.93;;;0.80;99.90;;;;;;5070387;28;20969;-51
2022/12/06 08:33:52;;;;;;;8.23;7.07;;;0.60;99.90;;;;;;5063631;28;20476;-50
2022/12/06 08:36:21;;;;;;;9.93;6.87;;;0.60;99.90;;;;;;5070802;28;20535;-51
2022/12/06 08:38:48;;;;;;;9.03;6.00;;;0.70;99.90;;;;;;5061039;28;20480;-52
2022/12/06 08:44:01;;;;;;;8.77;6.40;;;1.20;99.90;;;;;;5064980;28;20433;-51
2022/12/06 08:46:29;;;;;;;13.30;9.10;;;1.00;99.90;;;;;;5058442;28;20525;-53
2022/12/06 08:48:58;;;;;;;15.97;9.67;;;0.80;99.90;;;;;;5056235;28;20526;-51
2022/12/06 08:51:25;;;;;;;11.70;9.10;;;0.80;99.90;;;;;;5067225;28;20482;-51
2022/12/06 08:53:53;;;;;;;21.03;12.27;;;1.00;99.90;;;;;;5062075;28;20573;-50
2022/12/06 08:56:20;;;;;;;25.03;16.37;;;1.00;99.90;;;;;;5058299;28;20517;-52
2022/12/06 08:58:46;;;;;;;24.27;16.60;;;0.80;99.90;;;;;;5066996;28;20526;-49
2022/12/06 09:01:19;;;;;;;32.60;16.97;;;0.00;99.90;;;;;;5063586;28;20444;-51
2022/12/06 09:03:46;;;;;;;21.97;16.77;;;-0.10;99.90;;;;;;5058859;28;20459;-49
2022/12/06 09:06:15;;;;;;;23.33;18.53;;;0.20;99.90;;;;;;5061077;28;20445;-51
2022/12/06 09:08:42;;;;;;;24.83;18.07;;;0.40;99.90;;;;;;5060746;28;20807;-49
2022/12/06 09:11:09;;;;;;;22.70;17.20;;;0.50;99.90;;;;;;5060227;28;20524;-49
2022/12/06 09:13:37;;;;;;;30.00;17.23;;;0.50;99.90;;;;;;5060867;28;20479;-50
2022/12/06 09:16:06;;;;;;;25.70;16.30;;;0.50;99.90;;;;;;5066806;28;20532;-48
2022/12/06 09:18:34;;;;;;;22.43;15.43;;;0.50;99.90;;;;;;5061871;28;20961;-48
2022/12/06 09:21:05;;;;;;;19.47;14.37;;;0.50;99.90;;;;;;5065990;28;20442;-49
2022/12/06 09:23:33;;;;;;;19.30;14.23;;;0.30;99.90;;;;;;5061608;28;21018;-49
2022/12/06 09:26:00;;;;;;;23.73;15.70;;;0.40;99.90;;;;;;5065955;28;20532;-49
2022/12/06 09:28:28;;;;;;;25.93;17.37;;;0.40;99.90;;;;;;5062383;28;20580;-49
2022/12/06 09:30:55;;;;;;;19.30;15.27;;;0.40;99.90;;;;;;5071344;28;20473;-50
2022/12/06 09:33:23;;;;;;;17.43;15.40;;;0.30;99.90;;;;;;5059002;28;20825;-48
2022/12/06 09:35:52;;;;;;;20.97;14.67;;;0.40;99.90;;;;;;5062147;28;20448;-49
2022/12/06 09:38:21;;;;;;;12.20;9.50;;;0.30;99.90;;;;;;5063099;28;20860;-49
2022/12/06 09:40:59;;;;;;;9.43;7.60;;;0.40;99.90;;;;;;5069938;28;20440;-49
2022/12/06 09:43:41;;;;;;;10.83;9.03;;;0.50;99.90;;;;;;5058510;28;20826;-50
2022/12/06 09:46:34;;;;;;;12.93;11.30;;;0.40;99.90;;;;;;5064969;28;20511;-51
2022/12/06 09:49:28;;;;;;;16.20;11.13;;;0.50;99.90;;;;;;5071210;28;20800;-48
2022/12/06 09:52:08;;;;;;;12.97;10.67;;;0.50;99.90;;;;;;5062816;28;20996;-49
2022/12/06 09:54:57;;;;;;;10.13;9.13;;;0.80;99.90;;;;;;5060414;28;20504;-49
2022/12/06 09:57:35;;;;;;;13.97;7.87;;;0.80;99.90;;;;;;5058046;28;20448;-49
2022/12/06 10:00:04;;;;;;;11.23;10.03;;;0.90;99.90;;;;;;5065217;28;20448;-49
2022/12/06 10:02:48;;;;;;;17.30;14.53;;;0.90;99.90;;;;;;5067585;28;20464;-49
2022/12/06 10:05:36;;;;;;;21.00;15.00;;;1.00;99.90;;;;;;5071502;28;20442;-49
2022/12/06 10:08:12;;;;;;;17.73;14.23;;;1.20;99.90;;;;;;5063661;28;20531;-49
2022/12/06 10:10:52;;;;;;;12.13;9.87;;;1.20;99.90;;;;;;5067969;28;20438;-51
2022/12/06 10:13:32;;;;;;;14.97;11.00;;;1.10;99.90;;;;;;5068792;28;20531;-48
2022/12/06 10:16:11;;;;;;;12.87;9.83;;;1.20;99.90;;;;;;5062921;28;20527;-50
2022/12/06 10:18:53;;;;;;;15.87;10.90;;;1.30;99.90;;;;;;5064337;28;20850;-49
2022/12/06 10:21:29;;;;;;;17.40;12.73;;;1.20;99.90;;;;;;5058859;28;20520;-49
2022/12/06 10:24:07;;;;;;;14.07;11.30;;;1.30;99.90;;;;;;5062280;28;20465;-49
2022/12/06 10:26:39;;;;;;;14.20;11.07;;;1.30;99.90;;;;;;5074358;28;20506;-49
2022/12/06 10:29:14;;;;;;;17.53;12.80;;;1.50;99.90;;;;;;5073718;28;20480;-48
2022/12/06 10:31:55;;;;;;;13.43;10.57;;;1.70;99.90;;;;;;5073901;28;20454;-53
2022/12/06 10:34:27;;;;;;;15.20;12.43;;;1.90;99.90;;;;;;5073464;28;20571;-48
2022/12/06 10:37:05;;;;;;;15.23;12.07;;;1.90;99.90;;;;;;5074137;28;20449;-49
2022/12/06 10:39:41;;;;;;;20.30;12.87;;;1.90;99.90;;;;;;5073506;28;20540;-49
2022/12/06 10:42:13;;;;;;;15.30;12.27;;;1.80;99.90;;;;;;5073984;28;20527;-50
2022/12/06 10:44:47;;;;;;;13.77;11.47;;;2.00;99.90;;;;;;5073199;28;20437;-49
2022/12/06 10:47:18;;;;;;;14.30;10.43;;;1.70;99.90;;;;;;5074151;28;20532;-50
2022/12/06 10:49:53;;;;;;;11.50;10.20;;;1.80;99.90;;;;;;5055673;28;20938;-50
2022/12/06 10:52:26;;;;;;;14.10;10.47;;;1.80;99.90;;;;;;5054030;28;21005;-49
2022/12/06 10:55:01;;;;;;;9.73;8.73;;;1.90;99.90;;;;;;5073113;28;20472;-49
2022/12/06 10:57:36;;;;;;;12.70;10.20;;;1.80;99.90;;;;;;5073500;28;20527;-52
2022/12/06 11:00:13;;;;;;;10.27;9.23;;;1.90;99.90;;;;;;5071264;28;20535;-49
2022/12/06 11:02:47;;;;;;;11.87;10.67;;;2.00;99.90;;;;;;5066090;28;20838;-48
2022/12/06 11:05:18;;;;;;;10.37;9.33;;;2.10;99.90;;;;;;5066112;28;20525;-48
2022/12/06 11:07:49;;;;;;;9.70;8.17;;;2.40;99.90;;;;;;5064162;28;20448;-51
2022/12/06 11:10:20;;;;;;;12.70;9.00;;;2.70;99.90;;;;;;5073526;28;20437;-50
2022/12/06 11:12:49;;;;;;;9.80;8.77;;;2.70;99.90;;;;;;5073049;28;20461;-49
2022/12/06 11:15:21;;;;;;;12.97;9.23;;;2.70;99.90;;;;;;5072521;28;20468;-51
2022/12/06 11:17:52;;;;;;;8.53;7.73;;;2.50;99.90;;;;;;5067794;28;21004;-52
2022/12/06 11:20:25;;;;;;;6.73;6.00;;;2.40;99.90;;;;;;5065077;28;20516;-48
2022/12/06 11:23:06;;;;;;;5.23;4.83;;;2.30;99.90;;;;;;5072684;28;20981;-45
2022/12/06 11:25:42;;;;;;;4.80;3.83;;;2.40;99.90;;;;;;5073121;28;20444;-49
2022/12/06 11:28:20;;;;;;;5.60;4.03;;;2.50;99.90;;;;;;5072980;28;20558;-49
2022/12/06 11:30:51;;;;;;;7.17;5.87;;;2.50;99.90;;;;;;5073140;28;20443;-48
2022/12/06 11:33:21;;;;;;;5.90;5.30;;;2.60;99.90;;;;;;5071251;28;20465;-49
2022/12/06 11:35:48;;;;;;;7.37;6.27;;;2.60;99.90;;;;;;5071688;28;20847;-48
2022/12/06 11:38:16;;;;;;;6.93;4.73;;;2.60;99.90;;;;;;5072239;28;20540;-51
2022/12/06 11:40:46;;;;;;;6.77;4.33;;;2.70;99.90;;;;;;5071919;28;20536;-50
2022/12/06 11:43:18;;;;;;;4.23;3.83;;;2.80;99.90;;;;;;5072006;28;20544;-50
2022/12/06 11:45:46;;;;;;;4.43;4.03;;;2.80;99.90;;;;;;5065924;28;20528;-50
2022/12/06 11:48:17;;;;;;;4.83;3.30;;;2.80;99.90;;;;;;5062223;28;20433;-48
2022/12/06 11:50:46;;;;;;;3.80;3.27;;;2.80;99.90;;;;;;5061476;28;20442;-49
2022/12/06 11:53:19;;;;;;;4.80;2.97;;;2.70;99.90;;;;;;5052018;28;20462;-49
2022/12/06 11:55:48;;;;;;;3.53;2.70;;;2.80;99.90;;;;;;5051188;28;20477;-47
2022/12/06 11:58:19;;;;;;;3.00;2.60;;;2.80;99.90;;;;;;5051722;28;20939;-47
2022/12/06 12:00:57;;;;;;;2.90;2.43;;;2.80;99.90;;;;;;5052588;28;20469;-49
2022/12/06 12:03:31;;;;;;;2.40;2.20;;;2.90;99.90;;;;;;5062218;28;20548;-51
2022/12/06 12:06:18;;;;;;;4.60;2.83;;;3.00;99.90;;;;;;5070610;28;20441;-48
2022/12/06 12:08:55;;;;;;;4.47;3.47;;;2.90;99.90;;;;;;5067093;28;20536;-48
2022/12/06 12:11:24;;;;;;;4.37;3.07;;;3.20;99.90;;;;;;5064147;28;20863;-49
2022/12/06 12:13:54;;;;;;;2.50;2.10;;;3.10;99.90;;;;;;5069501;28;20643;-50
2022/12/06 12:16:24;;;;;;;3.33;2.43;;;3.00;99.90;;;;;;5070837;28;20567;-48
2022/12/06 12:18:56;;;;;;;3.50;2.03;;;3.00;99.90;;;;;;5070835;28;20532;-48
2022/12/06 12:21:38;;;;;;;2.83;2.50;;;3.00;99.90;;;;;;5070900;28;20441;-47
2022/12/06 12:24:06;;;;;;;3.20;2.33;;;2.90;99.90;;;;;;5071240;28;20493;-50
2022/12/06 12:26:40;;;;;;;3.27;2.20;;;3.00;99.90;;;;;;5072080;28;20448;-47
2022/12/06 12:29:18;;;;;;;3.17;2.37;;;3.00;99.90;;;;;;5071663;28;20811;-45
2022/12/06 12:31:54;;;;;;;2.27;2.07;;;3.10;99.90;;;;;;5071623;28;20516;-48
2022/12/06 12:34:25;;;;;;;2.80;2.00;;;3.10;99.90;;;;;;5071432;28;20464;-50
2022/12/06 12:36:55;;;;;;;2.60;2.27;;;3.20;99.90;;;;;;5071868;28;20548;-47
2022/12/06 12:39:26;;;;;;;2.47;2.13;;;3.20;99.90;;;;;;5072291;28;20532;-47
2022/12/06 12:41:53;;;;;;;2.90;2.63;;;3.30;99.90;;;;;;5072209;28;20444;-50
2022/12/06 12:44:24;;;;;;;4.10;2.80;;;3.30;99.90;;;;;;5071590;28;20471;-48
2022/12/06 12:46:56;;;;;;;2.77;2.47;;;3.90;99.90;;;;;;5071597;28;20457;-48
2022/12/06 12:49:28;;;;;;;6.33;2.80;;;3.60;99.90;;;;;;5071683;28;20961;-48
2022/12/06 12:51:56;;;;;;;3.30;2.63;;;3.40;99.90;;;;;;5071617;28;20446;-48
2022/12/06 12:54:28;;;;;;;3.53;2.77;;;3.40;99.90;;;;;;5070855;28;20547;-47
2022/12/06 12:56:55;;;;;;;4.23;3.10;;;3.60;99.90;;;;;;5071785;28;20523;-47
2022/12/06 12:59:25;;;;;;;3.80;2.00;;;3.50;99.90;;;;;;5071430;28;20441;-48
2022/12/06 13:01:57;;;;;;;2.43;2.07;;;3.30;99.90;;;;;;5071291;28;20913;-48
2022/12/06 13:04:40;;;;;;;4.23;2.20;;;3.20;99.90;;;;;;5071000;28;20557;-47
2022/12/06 13:07:14;;;;;;;2.57;2.37;;;3.20;99.90;;;;;;5071217;28;20448;-47
2022/12/06 13:09:47;;;;;;;2.40;2.00;;;3.20;99.90;;;;;;5071038;28;20565;-48
2022/12/06 13:12:20;;;;;;;2.60;2.30;;;3.40;99.90;;;;;;5071478;28;20443;-48
2022/12/06 13:14:52;;;;;;;2.60;1.97;;;3.30;99.90;;;;;;5070832;28;21056;-47
2022/12/06 13:17:22;;;;;;;1.40;1.30;;;3.20;99.90;;;;;;5071443;28;21028;-48
2022/12/06 13:19:52;;;;;;;2.33;1.83;;;3.20;99.90;;;;;;5071517;28;20627;-49
2022/12/06 13:22:23;;;;;;;1.73;1.47;;;3.20;99.90;;;;;;5071340;28;20477;-47
2022/12/06 13:24:58;;;;;;;1.80;1.30;;;3.20;99.90;;;;;;5071332;28;20510;-48
2022/12/06 13:27:27;;;;;;;1.97;1.77;;;3.20;99.90;;;;;;5071532;28;20460;-47
2022/12/06 13:29:58;;;;;;;1.87;1.60;;;3.20;99.90;;;;;;5071137;28;20527;-49
2022/12/06 13:32:32;;;;;;;3.20;2.00;;;3.30;99.90;;;;;;5071461;28;20433;-48
2022/12/06 13:35:04;;;;;;;3.00;2.60;;;3.30;99.90;;;;;;5071059;28;20919;-47